Pagina principale
METAR-TAF:

METAR-TAF

Aeroporti :

Pell City, Alabama, Stati Uniti

latitudine: 33-33-32N, longitudine: 086-14-57W, altezza: 148 m

Osservazione

Il bollettino è stato emesso 29 minuti fa, alle 09:15 UTC
Vento calmo
Temperature -4°C
Umidità 100%
Pressione 1026 hPa
Visibilità: 16.1 km
Cielo sereno

METAR: KPLR 120915Z AUTO 00000KT 10SM CLR M04/M04 A3029 RMK A01

Ora: 03:44 (09:44 UTC)


TAF: mancante

Osservazioni e previsioni meteorologiche di più di 4000 aeroporti (messaggi METAR e TAF).

Le stazioni disponibili sono rappresentate dai dischi gialli e rossi sulla carta.

Puntare il mouse per vedere il nome della stazione.

Clicca sopra per visualizzare le osservazioni e previsioni meteorologiche.

Per cambiare la mappa : fare clic sui pulsanti verdi con una croce nera per ingrandire, il pulsante verde con un trattino per diminuire, o sulla freccia verde per le mappe adiacenti.


METAR-TAF: